createdAt,value
2022-10-13T00:01:37.360Z,4.77
2022-10-13T00:04:40.422Z,5.05
2022-10-13T00:07:43.418Z,5.08
2022-10-13T00:10:48.017Z,4.91
2022-10-13T00:13:53.184Z,4.73
2022-10-13T00:16:57.032Z,4.61
2022-10-13T00:20:00.235Z,4.36
2022-10-13T00:23:03.225Z,4.04
2022-10-13T00:26:09.137Z,3.73
2022-10-13T00:29:12.163Z,3.54
2022-10-13T00:32:15.272Z,3.28
2022-10-13T00:35:18.447Z,3.14
2022-10-13T00:38:22.816Z,3.16
2022-10-13T00:41:26.030Z,3.18
2022-10-13T00:45:01.575Z,3.35
2022-10-13T00:48:04.773Z,3.59
2022-10-13T00:51:08.839Z,3.75
2022-10-13T00:54:18.009Z,3.80
2022-10-13T00:57:21.592Z,3.80
2022-10-13T01:00:25.098Z,3.87
2022-10-13T01:03:28.623Z,3.99
2022-10-13T01:06:31.877Z,4.13
2022-10-13T01:09:42.888Z,4.26
2022-10-13T01:12:57.646Z,4.38
2022-10-13T01:16:12.698Z,4.34
2022-10-13T01:19:45.881Z,4.37
2022-10-13T01:23:01.678Z,4.56
2022-10-13T01:26:38.713Z,4.84
2022-10-13T01:30:03.365Z,5.20
2022-10-13T01:33:34.360Z,5.47
2022-10-13T01:36:47.709Z,5.67
2022-10-13T01:39:58.528Z,5.83
2022-10-13T01:43:25.883Z,5.86
2022-10-13T01:46:33.149Z,5.88
2022-10-13T01:49:37.091Z,5.87
2022-10-13T01:52:40.998Z,5.93
2022-10-13T01:56:10.272Z,6.02
2022-10-13T01:59:17.647Z,6.09
2022-10-13T02:02:32.994Z,6.21
2022-10-13T02:05:50.749Z,6.30
2022-10-13T02:08:57.650Z,6.31
2022-10-13T02:12:10.784Z,6.43
2022-10-13T02:15:20.342Z,6.53
2022-10-13T02:18:29.131Z,6.67
2022-10-13T02:21:32.989Z,6.76
2022-10-13T02:24:38.293Z,6.90
2022-10-13T02:27:42.371Z,6.98
2022-10-13T02:30:46.734Z,7.14
2022-10-13T02:33:49.713Z,7.31
2022-10-13T02:36:53.095Z,7.48
2022-10-13T02:39:56.013Z,7.57
2022-10-13T02:42:59.055Z,7.79
2022-10-13T02:46:02.037Z,8.04
2022-10-13T02:49:05.147Z,8.29
2022-10-13T02:52:08.535Z,8.41
2022-10-13T02:55:13.763Z,8.54
2022-10-13T02:58:17.638Z,8.62
2022-10-13T03:01:20.697Z,8.71
2022-10-13T03:04:23.700Z,8.79
2022-10-13T03:07:28.850Z,8.93
2022-10-13T03:10:32.656Z,8.99
2022-10-13T03:13:37.251Z,9.10
2022-10-13T03:16:42.327Z,9.23
2022-10-13T03:19:46.329Z,9.38
2022-10-13T03:22:53.414Z,9.55
2022-10-13T03:25:56.895Z,9.74
2022-10-13T03:28:59.970Z,9.88
2022-10-13T03:32:03.177Z,9.97
2022-10-13T03:35:07.015Z,10.04
2022-10-13T03:38:10.051Z,10.09
2022-10-13T03:41:16.051Z,10.16
2022-10-13T03:44:21.007Z,10.25
2022-10-13T03:47:24.239Z,10.39
2022-10-13T03:50:27.446Z,10.52
2022-10-13T03:53:30.736Z,10.60
2022-10-13T03:56:33.676Z,10.65
2022-10-13T03:59:37.066Z,10.83
2022-10-13T04:02:40.264Z,10.97
2022-10-13T04:05:43.939Z,11.09
2022-10-13T04:08:47.148Z,11.21
2022-10-13T04:11:53.409Z,11.21
2022-10-13T04:14:56.434Z,11.33
2022-10-13T04:17:59.487Z,11.50
2022-10-13T04:21:02.542Z,11.63
2022-10-13T04:24:06.319Z,11.79
2022-10-13T04:27:09.434Z,11.91
2022-10-13T04:30:13.701Z,12.02
2022-10-13T04:33:16.767Z,12.15
2022-10-13T04:36:20.265Z,12.24
2022-10-13T04:39:25.917Z,12.29
2022-10-13T04:42:28.968Z,12.31
2022-10-13T04:45:31.935Z,12.42
2022-10-13T04:48:34.957Z,12.56
2022-10-13T04:51:38.769Z,12.57
2022-10-13T04:54:42.934Z,12.56
2022-10-13T04:57:46.077Z,12.60
2022-10-13T05:00:49.150Z,12.60
2022-10-13T05:03:57.095Z,12.66
2022-10-13T05:07:17.166Z,12.76
2022-10-13T05:10:21.578Z,12.96
2022-10-13T05:13:25.829Z,13.09
2022-10-13T05:16:33.168Z,13.26
2022-10-13T05:19:36.108Z,13.38
2022-10-13T05:22:39.318Z,13.45
2022-10-13T05:25:42.360Z,13.53
2022-10-13T05:28:48.887Z,13.56
2022-10-13T05:31:52.028Z,13.66
2022-10-13T05:34:58.472Z,13.78
2022-10-13T05:38:01.443Z,13.85
2022-10-13T05:41:06.705Z,13.97
2022-10-13T05:44:10.497Z,14.03
2022-10-13T05:47:19.384Z,14.12
2022-10-13T05:50:22.453Z,14.11
2022-10-13T05:53:32.631Z,14.13
2022-10-13T05:56:47.007Z,14.15
2022-10-13T06:00:10.803Z,14.04
2022-10-13T06:03:21.766Z,13.74
2022-10-13T06:06:31.154Z,13.49
2022-10-13T06:09:38.398Z,13.31
2022-10-13T06:12:41.367Z,13.18
2022-10-13T06:15:44.448Z,13.17
2022-10-13T06:18:47.747Z,13.25
2022-10-13T06:21:50.800Z,13.34
2022-10-13T06:24:53.873Z,13.41
2022-10-13T06:28:01.153Z,13.64
2022-10-13T06:31:07.234Z,13.83
2022-10-13T06:34:10.148Z,13.91
2022-10-13T06:37:13.184Z,14.00
2022-10-13T06:40:17.263Z,14.06
2022-10-13T06:43:20.212Z,14.05
2022-10-13T06:46:26.360Z,14.15
2022-10-13T06:49:29.319Z,14.25
2022-10-13T06:52:32.373Z,14.27
2022-10-13T06:55:35.646Z,14.34
2022-10-13T06:58:38.993Z,14.31
2022-10-13T07:01:42.097Z,14.30
2022-10-13T07:04:48.467Z,14.31
2022-10-13T07:07:54.638Z,14.35
2022-10-13T07:10:58.398Z,14.21
2022-10-13T07:17:04.732Z,13.96
2022-10-13T07:20:08.722Z,13.86
2022-10-13T07:23:11.815Z,13.82
2022-10-13T07:26:16.742Z,13.79
2022-10-13T07:29:19.553Z,13.78
2022-10-13T07:32:23.080Z,13.61
2022-10-13T07:35:30.493Z,13.53
2022-10-13T07:38:35.342Z,13.45
2022-10-13T07:41:38.787Z,13.39
2022-10-13T07:44:41.858Z,13.39
2022-10-13T07:47:44.876Z,13.44
2022-10-13T07:50:47.990Z,13.39
2022-10-13T07:53:50.981Z,13.35
2022-10-13T07:56:55.897Z,13.26
2022-10-13T07:59:59.226Z,13.20
2022-10-13T08:03:02.289Z,13.14
2022-10-13T08:06:06.570Z,13.09
2022-10-13T08:09:10.408Z,13.02
2022-10-13T08:12:13.642Z,13.00
2022-10-13T08:15:19.669Z,12.98
2022-10-13T08:18:22.640Z,12.95
2022-10-13T08:21:53.311Z,12.91
2022-10-13T08:24:51.616Z,12.89
2022-10-13T08:27:58.199Z,12.84
2022-10-13T08:31:03.438Z,12.76
2022-10-13T08:34:06.663Z,12.68
2022-10-13T08:37:15.624Z,12.65
2022-10-13T08:40:23.519Z,12.58
2022-10-13T08:43:27.361Z,12.53
2022-10-13T08:46:39.659Z,12.47
2022-10-13T08:49:44.398Z,12.40
2022-10-13T08:52:56.022Z,12.34
2022-10-13T08:56:00.797Z,12.26
2022-10-13T08:59:05.779Z,12.20
2022-10-13T09:02:30.681Z,12.17
2022-10-13T09:05:51.574Z,12.09
2022-10-13T09:08:58.109Z,11.96
2022-10-13T09:12:01.250Z,11.86
2022-10-13T09:15:10.545Z,11.79
2022-10-13T09:18:14.699Z,11.72
2022-10-13T09:21:24.865Z,11.65
2022-10-13T09:24:28.316Z,11.58
2022-10-13T09:28:02.344Z,11.52
2022-10-13T09:31:14.504Z,11.47
2022-10-13T09:34:20.522Z,11.39
2022-10-13T09:37:26.320Z,11.36
2022-10-13T09:40:32.332Z,11.33
2022-10-13T09:43:40.126Z,11.27
2022-10-13T09:46:58.174Z,11.19
2022-10-13T09:50:17.700Z,11.16
2022-10-13T09:53:23.820Z,11.10
2022-10-13T09:56:39.760Z,11.06
2022-10-13T10:00:10.981Z,11.00
2022-10-13T10:03:35.273Z,10.94
2022-10-13T10:06:40.994Z,10.94
2022-10-13T10:09:52.087Z,10.98
2022-10-13T10:12:55.249Z,11.02
2022-10-13T10:16:11.912Z,11.07
2022-10-13T10:19:31.191Z,11.06
2022-10-13T10:22:52.327Z,10.98
2022-10-13T10:26:07.360Z,10.90
2022-10-13T10:29:34.701Z,10.82
2022-10-13T10:32:53.260Z,10.75
2022-10-13T10:36:17.542Z,10.66
2022-10-13T10:39:52.815Z,10.56
2022-10-13T10:43:23.074Z,10.47
2022-10-13T10:46:31.360Z,10.42
2022-10-13T10:49:40.041Z,10.38
2022-10-13T10:52:58.572Z,10.47
2022-10-13T10:56:40.355Z,10.54
2022-10-13T11:00:06.456Z,10.51
2022-10-13T11:03:48.245Z,10.63
2022-10-13T11:06:51.310Z,10.62
2022-10-13T11:09:58.008Z,10.62
2022-10-13T11:13:01.093Z,10.59
2022-10-13T11:16:29.388Z,10.58
2022-10-13T11:19:38.000Z,10.49
2022-10-13T11:22:41.231Z,10.41
2022-10-13T11:25:49.479Z,10.34
2022-10-13T11:28:52.701Z,10.28
2022-10-13T11:31:56.149Z,10.30
2022-10-13T11:35:06.234Z,10.31
2022-10-13T11:38:26.922Z,10.29
2022-10-13T11:41:37.845Z,10.21
2022-10-13T11:45:25.649Z,10.16
2022-10-13T11:48:40.677Z,10.19
2022-10-13T11:51:52.999Z,10.22
2022-10-13T11:55:27.380Z,10.24
2022-10-13T11:58:34.951Z,10.16
2022-10-13T12:01:44.631Z,9.92
2022-10-13T12:05:07.992Z,9.76
2022-10-13T12:08:14.844Z,9.56
2022-10-13T12:11:30.396Z,9.53
2022-10-13T12:14:40.581Z,9.48
2022-10-13T12:17:45.293Z,9.40
2022-10-13T12:20:56.650Z,9.41
2022-10-13T12:24:09.087Z,9.31
2022-10-13T12:27:22.123Z,9.53
2022-10-13T12:30:39.032Z,9.63
2022-10-13T12:33:42.198Z,9.63
2022-10-13T12:36:47.320Z,9.61
2022-10-13T12:39:50.718Z,9.64
2022-10-13T12:42:54.705Z,9.64
2022-10-13T12:45:58.037Z,9.59
2022-10-13T12:49:32.205Z,9.60
2022-10-13T12:52:35.507Z,9.53
2022-10-13T12:55:59.570Z,9.48
2022-10-13T12:59:02.743Z,9.40
2022-10-13T13:02:38.862Z,9.39
2022-10-13T13:05:51.935Z,9.35
2022-10-13T13:09:15.655Z,9.39
2022-10-13T13:12:27.209Z,9.32
2022-10-13T13:15:36.765Z,9.37
2022-10-13T13:18:42.872Z,9.47
2022-10-13T13:21:45.920Z,9.59
2022-10-13T13:24:51.732Z,9.70
2022-10-13T13:27:55.915Z,9.75
2022-10-13T13:30:59.434Z,9.73
2022-10-13T13:34:02.405Z,9.79
2022-10-13T13:37:05.499Z,9.89
2022-10-13T13:40:15.355Z,9.98
2022-10-13T13:43:18.562Z,10.02
2022-10-13T13:46:24.372Z,10.01
2022-10-13T13:49:27.344Z,10.03
2022-10-13T13:52:30.348Z,10.05
2022-10-13T13:55:33.677Z,10.08
2022-10-13T13:58:36.936Z,10.07
2022-10-13T14:01:41.422Z,10.08
2022-10-13T14:04:45.051Z,10.12
2022-10-13T14:07:48.189Z,10.33
2022-10-13T14:10:51.295Z,10.47
2022-10-13T14:13:54.282Z,10.62
2022-10-13T14:17:04.338Z,10.76
2022-10-13T14:20:08.315Z,10.81
2022-10-13T14:23:13.889Z,10.84
2022-10-13T14:26:17.113Z,10.76
2022-10-13T14:29:20.467Z,10.65
2022-10-13T14:32:23.537Z,10.54
2022-10-13T14:35:27.010Z,10.48
2022-10-13T14:38:30.323Z,10.47
2022-10-13T14:41:33.445Z,10.43
2022-10-13T14:44:36.594Z,10.46
2022-10-13T14:47:41.471Z,10.46
2022-10-13T14:50:45.143Z,10.44
2022-10-13T14:53:48.238Z,10.37
2022-10-13T14:56:51.856Z,10.28
2022-10-13T14:59:58.007Z,10.22
2022-10-13T15:03:05.476Z,10.15
2022-10-13T15:06:11.163Z,10.09
2022-10-13T15:09:14.228Z,10.03
2022-10-13T15:12:17.513Z,9.96
2022-10-13T15:15:20.947Z,9.88
2022-10-13T15:18:28.372Z,9.79
2022-10-13T15:21:38.658Z,9.71
2022-10-13T15:24:42.126Z,9.57
2022-10-13T15:27:45.212Z,9.54
2022-10-13T15:30:48.184Z,9.51
2022-10-13T15:33:54.456Z,9.47
2022-10-13T15:36:58.956Z,9.44
2022-10-13T15:40:01.935Z,9.39
2022-10-13T15:43:05.680Z,9.34
2022-10-13T15:46:11.937Z,9.30
2022-10-13T15:49:14.880Z,9.21
2022-10-13T15:52:18.435Z,9.10
2022-10-13T15:55:21.709Z,9.01
2022-10-13T15:58:24.696Z,8.91
2022-10-13T16:01:27.634Z,8.78
2022-10-13T16:04:34.869Z,8.62
2022-10-13T16:07:41.840Z,8.49
2022-10-13T16:10:45.090Z,8.33
2022-10-13T16:13:49.950Z,8.13
2022-10-13T16:16:52.918Z,7.92
2022-10-13T16:19:56.150Z,7.69
2022-10-13T16:22:59.212Z,7.53
2022-10-13T16:26:06.585Z,7.40
2022-10-13T16:29:09.589Z,7.27
2022-10-13T16:32:12.634Z,7.14
2022-10-13T16:35:15.775Z,6.99
2022-10-13T16:38:18.777Z,6.86
2022-10-13T16:41:22.060Z,6.76
2022-10-13T16:44:25.388Z,6.63
2022-10-13T16:47:28.477Z,6.53
2022-10-13T16:50:31.406Z,6.47
2022-10-13T16:53:35.103Z,6.40
2022-10-13T16:56:38.159Z,6.38
2022-10-13T16:59:41.672Z,6.38
2022-10-13T17:02:44.659Z,6.39
2022-10-13T17:05:47.661Z,6.38
2022-10-13T17:08:50.703Z,6.32
2022-10-13T17:11:53.786Z,6.29
2022-10-13T17:14:57.015Z,6.21
2022-10-13T17:17:59.991Z,6.08
2022-10-13T17:21:06.186Z,6.04
2022-10-13T17:24:09.504Z,6.11
2022-10-13T17:27:12.508Z,6.23
2022-10-13T17:30:15.705Z,6.33
2022-10-13T17:33:18.703Z,6.39
2022-10-13T17:36:29.984Z,6.45
2022-10-13T17:39:35.061Z,6.47
2022-10-13T17:42:39.096Z,6.47
2022-10-13T17:45:42.130Z,6.50
2022-10-13T17:48:45.892Z,6.51
2022-10-13T17:51:53.005Z,6.54
2022-10-13T17:54:56.519Z,6.56
2022-10-13T17:58:00.682Z,6.54
2022-10-13T18:01:13.281Z,6.57
2022-10-13T18:04:19.572Z,6.58
2022-10-13T18:07:22.953Z,6.60
2022-10-13T18:10:26.082Z,6.66
2022-10-13T18:13:30.682Z,6.79
2022-10-13T18:16:34.047Z,6.87
2022-10-13T18:19:40.215Z,6.86
2022-10-13T18:22:43.559Z,6.83
2022-10-13T18:25:46.564Z,6.76
2022-10-13T18:28:50.473Z,6.64
2022-10-13T18:31:59.279Z,6.47
2022-10-13T18:35:02.306Z,6.21
2022-10-13T18:38:05.569Z,6.12
2022-10-13T18:41:14.830Z,6.01
2022-10-13T18:44:20.527Z,5.87
2022-10-13T18:47:23.773Z,5.78
2022-10-13T18:50:27.854Z,5.71
2022-10-13T18:53:33.074Z,5.69
2022-10-13T18:56:39.527Z,5.71
2022-10-13T18:59:42.865Z,5.75
2022-10-13T19:02:45.965Z,5.87
2022-10-13T19:05:49.343Z,5.91
2022-10-13T19:08:52.382Z,5.95
2022-10-13T19:11:58.286Z,5.92
2022-10-13T19:15:01.236Z,5.92
2022-10-13T19:18:04.786Z,5.97
2022-10-13T19:21:08.300Z,6.06
2022-10-13T19:24:11.391Z,6.12
2022-10-13T19:27:14.431Z,6.20
2022-10-13T19:30:17.521Z,6.22
2022-10-13T19:33:21.733Z,6.22
2022-10-13T19:36:37.988Z,6.25
2022-10-13T19:39:41.113Z,6.23
2022-10-13T19:42:44.129Z,6.22
2022-10-13T19:45:59.786Z,6.20
2022-10-13T19:49:04.041Z,6.19
2022-10-13T19:52:07.453Z,6.13
2022-10-13T19:55:14.183Z,6.11
2022-10-13T19:58:17.775Z,6.07
2022-10-13T20:01:21.779Z,6.06
2022-10-13T20:04:24.971Z,6.04
2022-10-13T20:07:27.986Z,6.02
2022-10-13T20:10:31.053Z,6.00
2022-10-13T20:13:34.012Z,5.98
2022-10-13T20:16:38.432Z,6.00
2022-10-13T20:19:41.667Z,6.01
2022-10-13T20:22:44.682Z,6.00
2022-10-13T20:25:48.286Z,6.01
2022-10-13T20:28:52.560Z,6.02
2022-10-13T20:31:55.614Z,6.08
2022-10-13T20:34:58.670Z,6.13
2022-10-13T20:38:01.729Z,6.22
2022-10-13T20:41:10.710Z,6.28
2022-10-13T20:44:13.703Z,6.32
2022-10-13T20:47:16.676Z,6.35
2022-10-13T20:50:19.737Z,6.41
2022-10-13T20:53:22.710Z,6.43
2022-10-13T20:56:26.978Z,6.45
2022-10-13T20:59:29.966Z,6.47
2022-10-13T21:02:33.517Z,6.48
2022-10-13T21:05:36.504Z,6.48
2022-10-13T21:08:40.245Z,6.51
2022-10-13T21:11:43.332Z,6.53
2022-10-13T21:14:46.480Z,6.56
2022-10-13T21:17:50.106Z,6.62
2022-10-13T21:20:53.162Z,6.69
2022-10-13T21:23:58.832Z,6.74
2022-10-13T21:27:01.801Z,6.78
2022-10-13T21:30:06.129Z,6.80
2022-10-13T21:33:09.136Z,6.82
2022-10-13T21:36:15.664Z,6.86
2022-10-13T21:39:19.257Z,6.85
2022-10-13T21:42:22.724Z,6.85
2022-10-13T21:45:25.732Z,6.84
2022-10-13T21:48:28.721Z,6.82
2022-10-13T21:51:34.823Z,6.80
2022-10-13T21:54:38.203Z,6.75
2022-10-13T21:57:41.175Z,6.72
2022-10-13T22:00:44.372Z,6.71
2022-10-13T22:03:48.808Z,6.66
2022-10-13T22:06:55.130Z,6.65
2022-10-13T22:10:00.945Z,6.61
2022-10-13T22:13:03.952Z,6.57
2022-10-13T22:16:09.204Z,6.59
2022-10-13T22:19:18.223Z,6.57
2022-10-13T22:22:21.235Z,6.55
2022-10-13T22:25:24.378Z,6.55
2022-10-13T22:28:27.727Z,6.54
2022-10-13T22:31:31.290Z,6.49
2022-10-13T22:34:34.652Z,6.44
2022-10-13T22:37:37.679Z,6.39
2022-10-13T22:40:41.446Z,6.33
2022-10-13T22:43:48.486Z,6.27
2022-10-13T22:46:51.491Z,6.23
2022-10-13T22:49:54.542Z,6.23
2022-10-13T22:52:57.792Z,6.18
2022-10-13T22:56:01.608Z,6.16
2022-10-13T22:59:07.221Z,6.12
2022-10-13T23:02:10.344Z,6.08
2022-10-13T23:05:14.738Z,6.11
2022-10-13T23:08:17.947Z,6.10
2022-10-13T23:11:21.259Z,6.11
2022-10-13T23:14:24.257Z,6.16
2022-10-13T23:17:27.211Z,6.24
2022-10-13T23:20:30.954Z,6.32
2022-10-13T23:23:34.662Z,6.40
2022-10-13T23:26:37.673Z,6.41
2022-10-13T23:29:40.698Z,6.44
2022-10-13T23:32:43.781Z,6.52
2022-10-13T23:35:55.252Z,6.64
2022-10-13T23:39:00.687Z,6.82
2022-10-13T23:42:03.861Z,6.94
2022-10-13T23:45:07.248Z,7.02
2022-10-13T23:48:10.254Z,6.99
2022-10-13T23:51:19.050Z,6.97
2022-10-13T23:54:22.079Z,6.88
2022-10-13T23:57:25.180Z,6.85
